createdAt,value
2018-01-05T00:00:02.867Z,-83
2018-01-05T00:01:02.511Z,-84
2018-01-05T00:02:01.858Z,-84
2018-01-05T00:03:02.160Z,-84
2018-01-05T00:04:02.420Z,-84
2018-01-05T00:05:01.852Z,-84
2018-01-05T00:06:02.461Z,-84
2018-01-05T00:07:01.836Z,-84
2018-01-05T00:08:02.239Z,-82
2018-01-05T00:09:02.599Z,-82
2018-01-05T00:10:02.039Z,-82
2018-01-05T00:11:01.523Z,-82
2018-01-05T00:12:01.937Z,-82
2018-01-05T00:13:02.497Z,-80
2018-01-05T00:14:01.904Z,-79
2018-01-05T00:15:02.005Z,-80
2018-01-05T00:16:02.449Z,-79
2018-01-05T00:19:07.437Z,-78
2018-01-05T00:20:01.930Z,-77
2018-01-05T00:21:02.319Z,-78
2018-01-05T00:22:01.949Z,-78
2018-01-05T00:23:01.977Z,-82
2018-01-05T00:24:02.265Z,-82
2018-01-05T00:25:02.525Z,-84
2018-01-05T00:26:01.727Z,-84
2018-01-05T00:27:01.962Z,-84
2018-01-05T00:28:02.163Z,-85
2018-01-05T00:29:02.365Z,-79
2018-01-05T00:30:01.755Z,-80
2018-01-05T00:31:01.938Z,-79
2018-01-05T00:32:02.292Z,-79
2018-01-05T00:33:01.859Z,-79
2018-01-05T00:34:02.197Z,-79
2018-01-05T00:35:02.288Z,-79
2018-01-05T00:36:02.195Z,-79
2018-01-05T00:37:02.621Z,-79
2018-01-05T00:38:01.977Z,-79
2018-01-05T00:39:02.255Z,-79
2018-01-05T00:40:02.608Z,-81
2018-01-05T00:41:01.931Z,-79
2018-01-05T00:42:02.702Z,-81
2018-01-05T00:43:02.326Z,-79
2018-01-05T00:44:02.972Z,-77
2018-01-05T00:45:02.450Z,-77
2018-01-05T00:46:01.907Z,-77
2018-01-05T00:47:02.247Z,-80
2018-01-05T00:48:02.720Z,-80
2018-01-05T00:49:01.929Z,-80
2018-01-05T00:50:02.564Z,-80
2018-01-05T00:51:02.062Z,-81
2018-01-05T00:52:02.249Z,-79
2018-01-05T00:53:02.706Z,-80
2018-01-05T00:54:02.268Z,-80
2018-01-05T00:55:02.746Z,-79
2018-01-05T00:56:02.036Z,-79
2018-01-05T00:57:02.220Z,-79
2018-01-05T00:58:02.410Z,-81
2018-01-05T00:59:01.673Z,-80
2018-01-05T01:00:02.417Z,-80
2018-01-05T01:01:02.990Z,-78
2018-01-05T01:02:02.464Z,-78
2018-01-05T01:03:02.823Z,-78
2018-01-05T01:04:02.155Z,-78
2018-01-05T01:05:02.564Z,-78
2018-01-05T01:06:02.876Z,-80
2018-01-05T01:07:02.283Z,-80
2018-01-05T01:08:02.598Z,-80
2018-01-05T01:09:02.818Z,-80
2018-01-05T01:10:02.692Z,-79
2018-01-05T01:11:02.905Z,-80
2018-01-05T01:12:02.176Z,-80
2018-01-05T01:13:02.571Z,-80
2018-01-05T01:14:03.810Z,-79
2018-01-05T01:15:02.244Z,-80
2018-01-05T01:16:02.558Z,-84
2018-01-05T01:17:02.897Z,-84
2018-01-05T01:18:02.237Z,-83
2018-01-05T01:19:02.749Z,-83
2018-01-05T01:20:01.943Z,-84
2018-01-05T01:21:02.243Z,-82
2018-01-05T01:22:02.394Z,-84
2018-01-05T01:23:02.557Z,-83
2018-01-05T01:24:02.877Z,-84
2018-01-05T01:25:02.340Z,-81
2018-01-05T01:26:02.944Z,-79
2018-01-05T01:27:01.996Z,-79
2018-01-05T01:28:02.163Z,-80
2018-01-05T01:29:02.421Z,-79
2018-01-05T01:30:02.953Z,-79
2018-01-05T01:31:02.378Z,-79
2018-01-05T01:32:02.818Z,-79
2018-01-05T01:33:02.079Z,-80
2018-01-05T01:34:02.465Z,-80
2018-01-05T01:35:02.707Z,-80
2018-01-05T01:36:02.082Z,-80
2018-01-05T01:37:02.334Z,-79
2018-01-05T01:38:02.504Z,-79
2018-01-05T01:39:02.680Z,-80
2018-01-05T01:41:26.168Z,-83
2018-01-05T01:42:02.585Z,-84
2018-01-05T01:43:01.949Z,-84
2018-01-05T01:44:02.312Z,-83
2018-01-05T01:45:02.435Z,-81
2018-01-05T01:46:02.643Z,-81
2018-01-05T01:47:02.180Z,-82
2018-01-05T01:48:02.614Z,-82
2018-01-05T01:49:02.035Z,-82
2018-01-05T01:50:02.316Z,-82
2018-01-05T01:51:02.510Z,-81
2018-01-05T01:52:02.892Z,-81
2018-01-05T01:53:02.043Z,-81
2018-01-05T01:54:02.246Z,-82
2018-01-05T01:55:02.702Z,-82
2018-01-05T01:56:01.872Z,-79
2018-01-05T01:57:02.405Z,-81
2018-01-05T01:58:02.033Z,-81
2018-01-05T01:59:02.285Z,-81
2018-01-05T02:00:02.508Z,-81
2018-01-05T02:01:03.060Z,-83
2018-01-05T02:02:02.542Z,-82
2018-01-05T02:03:03.063Z,-82
2018-01-05T02:04:02.430Z,-80
2018-01-05T02:05:02.660Z,-79
2018-01-05T02:06:01.874Z,-82
2018-01-05T02:07:02.040Z,-83
2018-01-05T02:08:02.251Z,-84
2018-01-05T02:09:02.848Z,-82
2018-01-05T02:10:02.378Z,-83
2018-01-05T02:11:02.520Z,-83
2018-01-05T02:12:02.629Z,-83
2018-01-05T02:13:02.028Z,-83
2018-01-05T02:14:02.393Z,-82
2018-01-05T02:15:02.834Z,-80
2018-01-05T02:16:02.233Z,-81
2018-01-05T02:17:02.710Z,-81
2018-01-05T02:18:01.972Z,-79
2018-01-05T02:19:02.170Z,-80
2018-01-05T02:20:02.772Z,-80
2018-01-05T02:21:01.906Z,-80
2018-01-05T02:22:02.275Z,-79
2018-01-05T02:23:02.461Z,-82
2018-01-05T02:24:02.568Z,-82
2018-01-05T02:25:02.707Z,-82
2018-01-05T02:26:02.105Z,-83
2018-01-05T02:27:03.589Z,-83
2018-01-05T02:28:02.917Z,-83
2018-01-05T02:29:02.208Z,-82
2018-01-05T02:30:02.597Z,-81
2018-01-05T02:31:01.778Z,-82
2018-01-05T02:32:02.084Z,-82
2018-01-05T02:33:02.570Z,-82
2018-01-05T02:34:03.037Z,-82
2018-01-05T02:35:04.139Z,-82
2018-01-05T02:36:02.486Z,-82
2018-01-05T02:37:02.881Z,-82
2018-01-05T02:38:02.388Z,-82
2018-01-05T02:39:02.753Z,-82
2018-01-05T02:40:03.243Z,-79
2018-01-05T02:41:02.719Z,-79
2018-01-05T02:42:03.113Z,-79
2018-01-05T02:43:02.538Z,-79
2018-01-05T02:44:02.706Z,-79
2018-01-05T02:45:03.254Z,-79
2018-01-05T02:46:02.438Z,-79
2018-01-05T02:47:02.857Z,-79
2018-01-05T02:49:25.949Z,-83
2018-01-05T02:50:02.482Z,-83
2018-01-05T02:51:02.756Z,-83
2018-01-05T02:52:02.937Z,-83
2018-01-05T02:53:02.141Z,-83
2018-01-05T02:54:02.312Z,-84
2018-01-05T02:55:02.551Z,-83
2018-01-05T02:56:02.814Z,-83
2018-01-05T02:57:01.923Z,-84
2018-01-05T02:58:01.984Z,-83
2018-01-05T02:59:02.317Z,-82
2018-01-05T03:00:02.673Z,-82
2018-01-05T03:01:03.278Z,-81
2018-01-05T03:02:02.935Z,-81
2018-01-05T03:03:02.430Z,-81
2018-01-05T03:04:02.653Z,-83
2018-01-05T03:05:01.942Z,-84
2018-01-05T03:06:02.333Z,-83
2018-01-05T03:07:02.740Z,-80
2018-01-05T03:08:01.849Z,-79
2018-01-05T03:09:02.091Z,-81
2018-01-05T03:10:02.490Z,-80
2018-01-05T03:11:01.664Z,-80
2018-01-05T03:12:03.385Z,-80
2018-01-05T03:13:01.904Z,-83
2018-01-05T03:14:02.224Z,-83
2018-01-05T03:15:02.279Z,-83
2018-01-05T03:16:02.675Z,-83
2018-01-05T03:17:01.843Z,-84
2018-01-05T03:18:02.333Z,-83
2018-01-05T03:19:04.169Z,-82
2018-01-05T03:20:02.749Z,-82
2018-01-05T03:21:02.066Z,-82
2018-01-05T03:22:02.398Z,-82
2018-01-05T03:23:02.797Z,-84
2018-01-05T03:24:02.497Z,-82
2018-01-05T03:25:01.660Z,-80
2018-01-05T03:26:02.048Z,-81
2018-01-05T03:27:02.328Z,-80
2018-01-05T03:28:02.650Z,-78
2018-01-05T03:29:01.938Z,-79
2018-01-05T03:30:02.609Z,-78
2018-01-05T03:31:01.708Z,-78
2018-01-05T03:32:02.000Z,-78
2018-01-05T03:33:02.218Z,-80
2018-01-05T03:34:01.595Z,-80
2018-01-05T03:35:02.014Z,-80
2018-01-05T03:36:02.133Z,-80
2018-01-05T03:37:01.363Z,-79
2018-01-05T03:38:01.594Z,-79
2018-01-05T03:39:01.920Z,-80
2018-01-05T03:40:02.282Z,-80
2018-01-05T03:41:01.519Z,-80
2018-01-05T03:42:01.989Z,-80
2018-01-05T03:43:02.399Z,-80
2018-01-05T03:44:01.674Z,-80
2018-01-05T03:45:02.054Z,-80
2018-01-05T03:46:01.529Z,-80
2018-01-05T03:47:01.888Z,-80
2018-01-05T03:48:02.306Z,-80
2018-01-05T03:49:01.449Z,-80
2018-01-05T03:50:02.010Z,-80
2018-01-05T03:51:02.426Z,-80
2018-01-05T03:52:01.814Z,-80
2018-01-05T03:53:02.232Z,-80
2018-01-05T03:54:01.555Z,-80
2018-01-05T03:55:01.573Z,-80
2018-01-05T03:56:01.871Z,-80
2018-01-05T03:57:02.300Z,-80
2018-01-05T03:58:01.163Z,-80
2018-01-05T03:59:01.501Z,-80
2018-01-05T04:00:01.845Z,-80
2018-01-05T04:01:02.000Z,-79
2018-01-05T04:02:02.325Z,-81
2018-01-05T04:03:01.633Z,-80
2018-01-05T04:04:02.094Z,-83
2018-01-05T04:05:02.613Z,-84
2018-01-05T04:06:03.322Z,-84
2018-01-05T04:07:02.817Z,-83
2018-01-05T04:08:01.928Z,-82
2018-01-05T04:09:02.201Z,-82
2018-01-05T04:10:02.485Z,-82
2018-01-05T04:11:02.791Z,-79
2018-01-05T04:12:02.178Z,-79
2018-01-05T04:13:02.241Z,-78
2018-01-05T04:14:02.364Z,-78
2018-01-05T04:15:02.513Z,-78
2018-01-05T04:16:02.707Z,-77
2018-01-05T04:17:01.853Z,-78
2018-01-05T04:18:02.311Z,-78
2018-01-05T04:19:02.555Z,-78
2018-01-05T04:20:03.297Z,-80
2018-01-05T04:21:02.413Z,-80
2018-01-05T04:22:02.625Z,-79
2018-01-05T04:23:03.045Z,-80
2018-01-05T04:24:02.393Z,-79
2018-01-05T04:25:02.597Z,-80
2018-01-05T04:26:02.892Z,-79
2018-01-05T04:27:02.061Z,-79
2018-01-05T04:28:02.411Z,-79
2018-01-05T04:29:03.403Z,-80
2018-01-05T04:30:02.578Z,-80
2018-01-05T04:31:02.893Z,-80
2018-01-05T04:32:02.168Z,-81
2018-01-05T04:33:02.460Z,-84
2018-01-05T04:34:02.879Z,-83
2018-01-05T04:35:02.228Z,-83
2018-01-05T04:36:02.384Z,-82
2018-01-05T04:37:02.692Z,-82
2018-01-05T04:38:02.074Z,-81
2018-01-05T04:39:02.570Z,-81
2018-01-05T04:40:01.920Z,-81
2018-01-05T04:41:02.237Z,-81
2018-01-05T04:42:02.509Z,-81
2018-01-05T04:43:02.590Z,-78
2018-01-05T04:44:01.764Z,-81
2018-01-05T04:45:02.078Z,-80
2018-01-05T04:46:02.581Z,-80
2018-01-05T04:47:01.916Z,-80
2018-01-05T04:48:02.273Z,-79
2018-01-05T04:49:02.763Z,-80
2018-01-05T04:50:02.403Z,-80
2018-01-05T04:51:01.641Z,-80
2018-01-05T04:52:01.848Z,-83
2018-01-05T04:53:02.468Z,-83
2018-01-05T04:54:02.677Z,-83
2018-01-05T04:55:02.070Z,-84
2018-01-05T04:56:03.488Z,-83
2018-01-05T04:57:03.973Z,-83
2018-01-05T04:58:02.457Z,-83
2018-01-05T04:59:02.581Z,-83
2018-01-05T05:00:01.856Z,-83
2018-01-05T05:01:02.078Z,-81
2018-01-05T05:02:02.415Z,-84
2018-01-05T05:03:02.650Z,-83
2018-01-05T05:04:01.914Z,-83
2018-01-05T05:05:02.375Z,-82
2018-01-05T05:06:01.713Z,-82
2018-01-05T05:07:02.168Z,-82
2018-01-05T05:08:01.364Z,-82
2018-01-05T05:09:01.472Z,-80
2018-01-05T05:10:01.493Z,-80
2018-01-05T05:11:01.397Z,-80
2018-01-05T05:12:01.338Z,-80
2018-01-05T05:13:01.813Z,-78
2018-01-05T05:14:02.065Z,-78
2018-01-05T05:15:03.243Z,-78
2018-01-05T05:16:01.512Z,-82
2018-01-05T05:17:01.541Z,-83
2018-01-05T05:18:01.983Z,-80
2018-01-05T05:19:01.226Z,-80
2018-01-05T05:20:01.471Z,-80
2018-01-05T05:21:01.747Z,-78
2018-01-05T05:22:02.131Z,-78
2018-01-05T05:23:01.683Z,-78
2018-01-05T05:24:01.840Z,-78
2018-01-05T05:25:01.973Z,-78
2018-01-05T05:26:01.137Z,-84
2018-01-05T05:27:01.663Z,-80
2018-01-05T05:28:02.056Z,-80
2018-01-05T05:29:01.450Z,-80
2018-01-05T05:30:01.822Z,-79
2018-01-05T05:31:02.057Z,-78
2018-01-05T05:32:01.340Z,-80
2018-01-05T05:33:01.730Z,-80
2018-01-05T05:34:02.239Z,-80
2018-01-05T05:35:01.389Z,-80
2018-01-05T05:36:01.614Z,-80
2018-01-05T05:37:01.682Z,-79
2018-01-05T05:38:02.791Z,-80
2018-01-05T05:39:01.915Z,-83
2018-01-05T05:40:02.342Z,-83
2018-01-05T05:41:02.693Z,-83
2018-01-05T05:42:01.929Z,-83
2018-01-05T05:43:02.220Z,-83
2018-01-05T05:44:02.454Z,-83
2018-01-05T05:45:01.653Z,-83
2018-01-05T05:46:01.722Z,-83
2018-01-05T05:47:01.866Z,-83
2018-01-05T05:48:02.017Z,-83
2018-01-05T05:49:02.435Z,-82
2018-01-05T05:50:02.910Z,-82
2018-01-05T05:51:02.355Z,-82
2018-01-05T05:52:02.464Z,-82
2018-01-05T05:53:01.569Z,-84
2018-01-05T05:54:01.724Z,-83
2018-01-05T05:55:01.825Z,-81
2018-01-05T05:56:02.470Z,-81
2018-01-05T05:57:01.602Z,-80
2018-01-05T05:58:01.855Z,-80
2018-01-05T05:59:02.342Z,-80
2018-01-05T06:00:02.472Z,-80
2018-01-05T06:01:02.673Z,-81
2018-01-05T06:02:02.082Z,-80
2018-01-05T06:03:02.481Z,-80
2018-01-05T06:04:01.649Z,-80
2018-01-05T06:05:01.828Z,-80
2018-01-05T06:06:02.130Z,-80
2018-01-05T06:07:02.427Z,-81
2018-01-05T06:08:02.820Z,-81
2018-01-05T06:09:03.230Z,-79
2018-01-05T06:10:02.475Z,-79
2018-01-05T06:11:02.571Z,-79
2018-01-05T06:12:02.848Z,-81
2018-01-05T06:13:03.104Z,-81
2018-01-05T06:14:02.406Z,-81
2018-01-05T06:15:02.652Z,-80
2018-01-05T06:16:02.747Z,-80
2018-01-05T06:17:03.136Z,-79
2018-01-05T06:18:02.642Z,-79
2018-01-05T06:19:03.009Z,-79
2018-01-05T06:20:02.274Z,-81
2018-01-05T06:21:02.540Z,-81
2018-01-05T06:22:02.814Z,-81
2018-01-05T06:23:03.027Z,-81
2018-01-05T06:24:02.159Z,-80
2018-01-05T06:25:02.401Z,-81
2018-01-05T06:26:02.757Z,-79
2018-01-05T06:27:03.004Z,-81
2018-01-05T06:28:02.498Z,-80
2018-01-05T06:29:03.259Z,-80
2018-01-05T06:30:02.616Z,-79
2018-01-05T06:32:04.536Z,-82
2018-01-05T06:33:03.053Z,-82
2018-01-05T06:34:02.438Z,-83
2018-01-05T06:35:02.866Z,-83
2018-01-05T06:36:03.884Z,-83
2018-01-05T06:37:02.058Z,-83
2018-01-05T06:38:01.403Z,-82
2018-01-05T06:39:01.617Z,-81
2018-01-05T06:40:02.058Z,-82
2018-01-05T06:41:01.190Z,-79
2018-01-05T06:42:01.374Z,-84
2018-01-05T06:43:01.668Z,-84
2018-01-05T06:44:01.893Z,-84
2018-01-05T06:45:02.285Z,-83
2018-01-05T06:46:01.510Z,-83
2018-01-05T06:47:01.668Z,-84
2018-01-05T06:48:01.971Z,-82
2018-01-05T06:49:01.214Z,-82
2018-01-05T06:50:01.649Z,-81
2018-01-05T06:51:02.159Z,-79
2018-01-05T06:52:01.509Z,-78
2018-01-05T06:53:01.864Z,-81
2018-01-05T06:54:02.233Z,-80
2018-01-05T06:55:01.633Z,-81
2018-01-05T06:56:01.835Z,-81
2018-01-05T06:57:02.139Z,-81
2018-01-05T06:58:01.453Z,-80
2018-01-05T06:59:01.796Z,-80
2018-01-05T07:00:02.294Z,-79
2018-01-05T07:01:01.924Z,-81
2018-01-05T07:02:03.116Z,-80
2018-01-05T07:03:01.546Z,-80
2018-01-05T07:04:01.938Z,-80
2018-01-05T07:05:03.277Z,-80
2018-01-05T07:06:01.724Z,-83
2018-01-05T07:07:01.956Z,-83
2018-01-05T07:08:02.609Z,-82
2018-01-05T07:09:03.455Z,-81
2018-01-05T07:10:02.917Z,-82
2018-01-05T07:11:02.514Z,-79
2018-01-05T07:12:03.835Z,-79
2018-01-05T07:13:01.997Z,-80
2018-01-05T07:14:02.289Z,-80
2018-01-05T07:15:02.685Z,-81
2018-01-05T07:16:03.086Z,-81
2018-01-05T07:17:02.553Z,-80
2018-01-05T07:18:03.059Z,-79
2018-01-05T07:19:02.565Z,-80
2018-01-05T07:20:02.972Z,-80
2018-01-05T07:21:02.421Z,-80
2018-01-05T07:22:03.423Z,-80
2018-01-05T07:23:03.105Z,-80
2018-01-05T07:24:02.544Z,-81
2018-01-05T07:25:03.038Z,-80
2018-01-05T07:26:02.250Z,-81
2018-01-05T07:27:02.742Z,-80
2018-01-05T07:28:03.014Z,-79
2018-01-05T07:29:02.418Z,-78
2018-01-05T07:30:02.861Z,-78
2018-01-05T07:31:02.035Z,-79
2018-01-05T07:32:02.448Z,-80
2018-01-05T07:33:04.305Z,-80
2018-01-05T07:34:02.953Z,-80
2018-01-05T07:35:02.296Z,-81
2018-01-05T07:36:04.881Z,-81
2018-01-05T07:37:02.168Z,-82
2018-01-05T07:38:02.467Z,-82
2018-01-05T07:39:02.878Z,-81
2018-01-05T07:40:03.474Z,-81
2018-01-05T07:41:02.794Z,-81
2018-01-05T07:42:02.881Z,-80
2018-01-05T07:43:03.129Z,-80
2018-01-05T07:44:02.298Z,-80
2018-01-05T07:45:02.935Z,-80
2018-01-05T07:46:03.488Z,-78
2018-01-05T07:47:03.335Z,-80
2018-01-05T07:48:02.448Z,-82
2018-01-05T07:49:02.462Z,-80
2018-01-05T07:50:02.777Z,-80
2018-01-05T07:51:03.225Z,-80
2018-01-05T07:52:02.655Z,-81
2018-01-05T07:53:02.922Z,-80
2018-01-05T07:59:06.726Z,-83
2018-01-05T08:00:03.279Z,-83
2018-01-05T08:01:02.443Z,-79
2018-01-05T08:02:02.579Z,-78
2018-01-05T08:03:02.944Z,-79
2018-01-05T08:04:02.706Z,-79
2018-01-05T08:05:03.053Z,-79
2018-01-05T08:06:02.421Z,-82
2018-01-05T08:07:02.861Z,-83
2018-01-05T08:08:02.546Z,-83
2018-01-05T08:09:02.084Z,-84
2018-01-05T08:10:02.658Z,-80
2018-01-05T08:11:02.215Z,-80
2018-01-05T08:12:02.389Z,-79
2018-01-05T08:13:02.841Z,-80
2018-01-05T08:14:02.239Z,-79
2018-01-05T08:15:02.479Z,-79
2018-01-05T08:16:01.910Z,-79
2018-01-05T08:17:02.519Z,-78
2018-01-05T08:18:03.517Z,-78
2018-01-05T08:19:03.222Z,-78
2018-01-05T08:20:02.690Z,-84
2018-01-05T08:21:02.015Z,-84
2018-01-05T08:22:02.412Z,-84
2018-01-05T08:23:02.772Z,-84
2018-01-05T08:24:02.159Z,-83
2018-01-05T08:25:02.569Z,-84
2018-01-05T08:26:03.789Z,-83
2018-01-05T08:27:02.319Z,-84
2018-01-05T08:28:02.382Z,-84
2018-01-05T08:29:02.687Z,-84
2018-01-05T08:30:02.247Z,-83
2018-01-05T08:31:02.586Z,-84
2018-01-05T08:32:01.951Z,-85
2018-01-05T08:33:02.050Z,-85
2018-01-05T08:34:02.600Z,-82
2018-01-05T08:35:02.042Z,-82
2018-01-05T08:36:02.340Z,-82
2018-01-05T08:37:02.682Z,-83
2018-01-05T08:38:02.418Z,-80
2018-01-05T08:39:02.651Z,-80
2018-01-05T08:40:03.056Z,-80
2018-01-05T08:41:02.529Z,-80
2018-01-05T08:42:03.371Z,-80
2018-01-05T08:43:02.841Z,-79
2018-01-05T08:44:02.971Z,-80
2018-01-05T08:45:02.177Z,-81
2018-01-05T08:46:02.347Z,-80
2018-01-05T08:47:02.635Z,-81
2018-01-05T08:48:03.084Z,-80
2018-01-05T08:49:02.402Z,-81
2018-01-05T08:50:02.826Z,-82
2018-01-05T08:51:03.084Z,-81
2018-01-05T08:52:02.478Z,-80
2018-01-05T08:53:02.988Z,-79
2018-01-05T08:54:02.255Z,-80
2018-01-05T08:55:02.416Z,-81
2018-01-05T08:56:02.718Z,-81
2018-01-05T08:57:03.116Z,-81
2018-01-05T08:58:02.568Z,-81
2018-01-05T08:59:02.930Z,-80
2018-01-05T09:00:02.288Z,-80
2018-01-05T09:01:02.753Z,-80
2018-01-05T09:02:02.974Z,-81
2018-01-05T09:03:02.226Z,-80
2018-01-05T09:04:02.813Z,-80
2018-01-05T09:05:03.400Z,-81
2018-01-05T09:06:02.770Z,-81
2018-01-05T09:07:03.389Z,-81
2018-01-05T09:08:02.889Z,-80
2018-01-05T09:09:02.354Z,-80
2018-01-05T09:10:02.943Z,-80
2018-01-05T09:11:02.497Z,-80
2018-01-05T09:12:01.799Z,-79
2018-01-05T09:13:01.888Z,-80
2018-01-05T09:14:02.125Z,-81
2018-01-05T09:15:02.696Z,-80
2018-01-05T09:16:01.943Z,-81
2018-01-05T09:17:02.377Z,-80
2018-01-05T09:18:02.899Z,-80
2018-01-05T09:19:01.938Z,-82
2018-01-05T09:20:02.343Z,-82
2018-01-05T09:21:02.945Z,-81
2018-01-05T09:22:02.396Z,-81
2018-01-05T09:23:02.711Z,-82
2018-01-05T09:24:01.912Z,-83
2018-01-05T09:25:02.197Z,-82
2018-01-05T09:26:02.375Z,-83
2018-01-05T09:27:02.862Z,-83
2018-01-05T09:28:02.296Z,-83
2018-01-05T09:29:02.586Z,-83
2018-01-05T09:30:01.980Z,-81
2018-01-05T09:31:02.534Z,-83
2018-01-05T09:32:01.985Z,-81
2018-01-05T09:33:02.508Z,-82
2018-01-05T09:34:02.829Z,-82
2018-01-05T09:35:02.222Z,-83
2018-01-05T09:36:02.330Z,-83
2018-01-05T09:37:02.628Z,-82
2018-01-05T09:38:02.118Z,-82
2018-01-05T09:39:02.805Z,-80
2018-01-05T09:40:02.152Z,-80
2018-01-05T09:41:02.321Z,-81
2018-01-05T09:42:01.585Z,-81
2018-01-05T09:43:02.015Z,-81
2018-01-05T09:44:01.364Z,-81
2018-01-05T09:45:01.903Z,-79
2018-01-05T09:46:02.439Z,-81
2018-01-05T09:47:01.629Z,-81
2018-01-05T09:48:02.039Z,-81
2018-01-05T09:49:02.211Z,-81
2018-01-05T09:50:01.799Z,-81
2018-01-05T09:51:01.943Z,-80
2018-01-05T09:52:01.961Z,-81
2018-01-05T09:53:02.089Z,-79
2018-01-05T09:54:02.415Z,-80
2018-01-05T09:55:02.062Z,-80
2018-01-05T09:56:02.348Z,-80
2018-01-05T09:57:01.394Z,-80
2018-01-05T09:58:01.804Z,-80
2018-01-05T09:59:02.933Z,-80
2018-01-05T10:00:02.197Z,-81
2018-01-05T10:01:02.551Z,-82
2018-01-05T10:02:01.835Z,-83
2018-01-05T10:03:02.117Z,-83
2018-01-05T10:04:02.329Z,-83
2018-01-05T10:05:02.526Z,-81
2018-01-05T10:06:02.335Z,-80
2018-01-05T10:07:01.561Z,-81
2018-01-05T10:08:01.718Z,-80
2018-01-05T10:09:01.882Z,-80
2018-01-05T10:10:02.438Z,-88
2018-01-05T10:11:02.886Z,-88
2018-01-05T10:12:03.214Z,-88
2018-01-05T10:13:02.608Z,-88
2018-01-05T10:14:02.780Z,-87
2018-01-05T10:15:03.010Z,-89
2018-01-05T10:16:02.051Z,-87
2018-01-05T10:17:02.278Z,-87
2018-01-05T10:18:02.814Z,-89
2018-01-05T10:19:03.055Z,-88
2018-01-05T10:20:02.488Z,-88
2018-01-05T10:21:02.559Z,-90
2018-01-05T10:22:02.852Z,-88
2018-01-05T10:23:03.061Z,-87
2018-01-05T10:24:02.376Z,-88
2018-01-05T10:25:06.345Z,-86
2018-01-05T10:26:02.728Z,-87
2018-01-05T10:27:03.431Z,-86
2018-01-05T10:28:02.997Z,-87
2018-01-05T10:29:02.227Z,-86
2018-01-05T10:30:02.776Z,-85
2018-01-05T10:31:03.308Z,-86
2018-01-05T10:32:02.847Z,-86
2018-01-05T10:33:03.258Z,-87
2018-01-05T10:34:02.480Z,-87
2018-01-05T10:35:02.712Z,-87
2018-01-05T10:36:03.141Z,-87
2018-01-05T10:37:02.783Z,-86
2018-01-05T10:38:03.271Z,-86
2018-01-05T10:39:02.740Z,-86
2018-01-05T10:40:03.266Z,-78
2018-01-05T10:41:02.747Z,-78
2018-01-05T10:42:03.047Z,-79
2018-01-05T10:43:02.325Z,-79
2018-01-05T10:44:02.921Z,-79
2018-01-05T10:45:02.474Z,-86
2018-01-05T10:46:02.890Z,-85
2018-01-05T10:47:02.112Z,-86
2018-01-05T10:48:02.538Z,-87
2018-01-05T10:49:02.719Z,-87
2018-01-05T10:50:02.377Z,-87
2018-01-05T10:51:02.868Z,-89
2018-01-05T10:52:02.336Z,-88
2018-01-05T10:53:02.700Z,-90
2018-01-05T10:54:02.990Z,-89
2018-01-05T10:55:02.595Z,-80
2018-01-05T10:56:02.859Z,-80
2018-01-05T10:57:02.022Z,-80
2018-01-05T10:58:02.687Z,-87
2018-01-05T10:59:08.704Z,-87
2018-01-05T11:00:02.400Z,-88
2018-01-05T11:01:02.696Z,-89
2018-01-05T11:02:02.814Z,-90
2018-01-05T11:03:02.248Z,-90
2018-01-05T11:04:02.625Z,-87
2018-01-05T11:05:03.005Z,-89
2018-01-05T11:06:02.437Z,-89
2018-01-05T11:07:02.839Z,-87
2018-01-05T11:08:02.193Z,-81
2018-01-05T11:09:02.543Z,-89
2018-01-05T11:10:02.964Z,-90
2018-01-05T11:11:02.827Z,-85
2018-01-05T11:12:02.298Z,-87
2018-01-05T11:13:01.442Z,-86
2018-01-05T11:14:01.734Z,-81
2018-01-05T11:15:02.152Z,-84
2018-01-05T11:16:02.908Z,-86
2018-01-05T11:17:02.401Z,-85
2018-01-05T11:18:01.703Z,-85
2018-01-05T11:19:01.910Z,-85
2018-01-05T11:20:02.309Z,-84
2018-01-05T11:21:01.628Z,-80
2018-01-05T11:22:03.086Z,-81
2018-01-05T11:23:02.845Z,-82
2018-01-05T11:24:02.525Z,-84
2018-01-05T11:25:04.611Z,-81
2018-01-05T11:26:10.500Z,-81
2018-01-05T11:27:01.980Z,-81
2018-01-05T11:28:02.637Z,-81
2018-01-05T11:29:01.814Z,-81
2018-01-05T11:30:02.436Z,-80
2018-01-05T11:31:01.993Z,-83
2018-01-05T11:32:02.166Z,-82
2018-01-05T11:33:01.895Z,-77
2018-01-05T11:34:02.353Z,-77
2018-01-05T11:35:01.736Z,-77
2018-01-05T11:36:01.954Z,-77
2018-01-05T11:37:02.164Z,-77
2018-01-05T11:38:04.483Z,-77
2018-01-05T11:39:01.602Z,-77
2018-01-05T11:40:02.088Z,-77
2018-01-05T11:41:02.443Z,-79
2018-01-05T11:42:01.647Z,-79
2018-01-05T11:43:02.133Z,-79
2018-01-05T11:44:02.749Z,-79
2018-01-05T11:45:02.200Z,-79
2018-01-05T11:46:02.411Z,-79
2018-01-05T11:47:02.701Z,-79
2018-01-05T11:48:02.445Z,-78
2018-01-05T11:49:02.612Z,-78
2018-01-05T11:50:02.035Z,-78
2018-01-05T11:51:02.582Z,-78
2018-01-05T11:52:02.041Z,-77
2018-01-05T11:53:02.625Z,-79
2018-01-05T11:54:02.216Z,-79
2018-01-05T11:55:05.412Z,-79
2018-01-05T11:56:02.821Z,-77
2018-01-05T11:57:02.333Z,-77
2018-01-05T11:58:02.665Z,-79
2018-01-05T11:59:02.188Z,-79
2018-01-05T12:00:02.652Z,-79
2018-01-05T12:01:02.305Z,-79
2018-01-05T12:02:02.855Z,-79
2018-01-05T12:03:01.980Z,-78
2018-01-05T12:04:02.810Z,-80
2018-01-05T12:05:02.370Z,-79
2018-01-05T12:06:02.978Z,-78
2018-01-05T12:07:02.542Z,-82
2018-01-05T12:08:01.953Z,-82
2018-01-05T12:09:02.226Z,-81
2018-01-05T12:10:02.578Z,-80
2018-01-05T12:11:02.040Z,-82
2018-01-05T12:12:02.466Z,-81
2018-01-05T12:13:01.847Z,-81
2018-01-05T12:14:02.265Z,-82
2018-01-05T12:15:02.193Z,-82
2018-01-05T12:16:01.675Z,-82
2018-01-05T12:17:01.985Z,-81
2018-01-05T12:18:02.500Z,-81
2018-01-05T12:19:01.827Z,-79
2018-01-05T12:20:02.476Z,-79
2018-01-05T12:21:01.646Z,-79
2018-01-05T12:22:02.220Z,-79
2018-01-05T12:23:01.698Z,-81
2018-01-05T12:24:03.188Z,-81
2018-01-05T12:25:02.946Z,-91
2018-01-05T12:26:04.242Z,-80
2018-01-05T12:27:03.502Z,-76
2018-01-05T12:28:01.682Z,-77
2018-01-05T12:29:01.988Z,-76
2018-01-05T12:30:04.899Z,-77
2018-01-05T12:31:03.219Z,-79
2018-01-05T12:32:01.484Z,-77
2018-01-05T12:33:03.855Z,-78
2018-01-05T12:34:02.370Z,-79
2018-01-05T12:35:01.714Z,-79
2018-01-05T12:36:01.998Z,-79
2018-01-05T12:37:02.287Z,-79
2018-01-05T12:38:01.806Z,-79
2018-01-05T12:39:02.153Z,-79
2018-01-05T12:40:01.715Z,-79
2018-01-05T12:41:02.248Z,-78
2018-01-05T12:42:01.576Z,-79
2018-01-05T12:43:02.156Z,-79
2018-01-05T12:44:02.871Z,-79
2018-01-05T12:45:02.765Z,-80
2018-01-05T12:46:02.118Z,-80
2018-01-05T12:47:02.381Z,-80
2018-01-05T12:48:02.797Z,-80
2018-01-05T12:49:02.160Z,-78
2018-01-05T12:50:02.429Z,-80
2018-01-05T12:51:02.623Z,-87
2018-01-05T12:52:03.766Z,-84
2018-01-05T12:53:02.025Z,-87
2018-01-05T12:54:02.571Z,-87
2018-01-05T12:55:03.125Z,-85
2018-01-05T12:56:02.272Z,-86
2018-01-05T12:57:02.435Z,-88
2018-01-05T12:58:02.800Z,-88
2018-01-05T12:59:02.284Z,-88
2018-01-05T13:00:02.871Z,-79
2018-01-05T13:01:02.330Z,-78
2018-01-05T13:02:02.714Z,-80
2018-01-05T13:03:02.131Z,-79
2018-01-05T13:04:02.510Z,-79
2018-01-05T13:05:02.986Z,-79
2018-01-05T13:06:02.272Z,-79
2018-01-05T13:07:02.402Z,-80
2018-01-05T13:08:02.818Z,-79
2018-01-05T13:09:02.286Z,-79
2018-01-05T13:10:03.519Z,-79
2018-01-05T13:11:01.809Z,-79
2018-01-05T13:12:02.149Z,-79
2018-01-05T13:13:02.380Z,-79
2018-01-05T13:14:01.758Z,-79
2018-01-05T13:15:02.135Z,-79
2018-01-05T13:16:02.399Z,-79
2018-01-05T13:17:01.795Z,-80
2018-01-05T13:18:02.209Z,-88
2018-01-05T13:19:01.680Z,-87
2018-01-05T13:20:02.001Z,-89
2018-01-05T13:21:02.427Z,-89
2018-01-05T13:22:02.065Z,-88
2018-01-05T13:23:02.351Z,-88
2018-01-05T13:24:01.819Z,-89
2018-01-05T13:25:02.247Z,-88
2018-01-05T13:26:01.549Z,-89
2018-01-05T13:27:01.722Z,-89
2018-01-05T13:28:02.021Z,-89
2018-01-05T13:29:02.064Z,-88
2018-01-05T13:30:02.493Z,-89
2018-01-05T13:31:01.981Z,-87
2018-01-05T13:32:02.514Z,-89
2018-01-05T13:33:01.893Z,-88
2018-01-05T13:34:02.179Z,-88
2018-01-05T13:35:01.496Z,-88
2018-01-05T13:36:01.838Z,-88
2018-01-05T13:37:01.865Z,-77
2018-01-05T13:38:02.877Z,-80
2018-01-05T13:39:02.246Z,-79
2018-01-05T13:40:01.893Z,-81
2018-01-05T13:41:02.328Z,-88
2018-01-05T13:42:01.919Z,-83
2018-01-05T13:43:02.379Z,-87
2018-01-05T13:44:01.870Z,-89
2018-01-05T13:45:02.045Z,-88
2018-01-05T13:46:02.322Z,-88
2018-01-05T13:47:02.612Z,-88
2018-01-05T13:48:01.987Z,-89
2018-01-05T13:49:02.182Z,-87
2018-01-05T13:50:02.456Z,-88
2018-01-05T13:51:02.779Z,-88
2018-01-05T13:52:02.285Z,-85
2018-01-05T13:53:02.378Z,-88
2018-01-05T13:54:02.617Z,-88
2018-01-05T13:55:02.015Z,-88
2018-01-05T13:56:02.431Z,-89